Time;durP1;ratioP1;P1;durP2;ratioP2;P2;SDS_P1;SDS_P2;PMS_P1;PMS_P2;Temp;Humidity;BMP_temperature;BMP_pressure;BME280_temperature;BME280_humidity;BME280_pressure;Samples;Min_cycle;Max_cycle;Signal;HPM_P1;HPM_P2
2022/03/03 00:00:28;;;;;;;11.23;7.65;;;8.80;77.10;;;;;;4813796;29;20133;-82
2022/03/03 00:02:54;;;;;;;9.85;7.60;;;8.80;77.20;;;;;;4828958;29;20034;-82
2022/03/03 00:05:20;;;;;;;9.40;7.70;;;8.80;77.20;;;;;;4813103;29;20034;-82
2022/03/03 00:07:46;;;;;;;10.30;7.53;;;8.70;77.10;;;;;;4844700;29;20030;-82
2022/03/03 00:10:12;;;;;;;9.73;7.57;;;8.70;77.10;;;;;;4798262;29;20498;-80
2022/03/03 00:12:38;;;;;;;10.68;8.13;;;8.70;77.10;;;;;;4812978;29;20033;-81
2022/03/03 00:15:04;;;;;;;10.38;7.88;;;8.70;77.20;;;;;;4813764;29;20129;-81
2022/03/03 00:17:30;;;;;;;10.50;7.53;;;8.70;77.10;;;;;;4798041;29;20488;-83
2022/03/03 00:19:56;;;;;;;10.20;7.63;;;8.70;77.10;;;;;;4828366;29;20042;-80
2022/03/03 00:22:22;;;;;;;10.68;7.80;;;8.60;77.10;;;;;;4813233;29;20034;-80
2022/03/03 00:24:49;;;;;;;10.85;7.78;;;8.60;77.00;;;;;;4813171;29;20079;-80
2022/03/03 00:27:15;;;;;;;9.63;7.60;;;8.60;77.10;;;;;;4812857;29;20038;-81
2022/03/03 00:29:40;;;;;;;10.07;8.00;;;8.60;77.10;;;;;;4812822;29;20504;-80
2022/03/03 00:32:07;;;;;;;8.98;7.10;;;8.60;77.10;;;;;;4812852;29;20034;-80
2022/03/03 00:34:33;;;;;;;10.25;7.53;;;8.50;77.00;;;;;;4812530;29;20054;-81
2022/03/03 00:36:59;;;;;;;9.30;7.18;;;8.50;77.00;;;;;;4813779;29;20038;-80
2022/03/03 00:39:24;;;;;;;11.43;8.45;;;8.50;77.00;;;;;;4812893;29;20041;-81
2022/03/03 00:41:51;;;;;;;10.68;7.65;;;8.40;77.00;;;;;;4812320;29;20076;-81
2022/03/03 00:44:17;;;;;;;10.65;8.45;;;8.40;77.00;;;;;;4812706;29;20034;-80
2022/03/03 00:46:42;;;;;;;11.02;8.48;;;8.40;77.00;;;;;;4797604;29;20034;-81
2022/03/03 00:49:08;;;;;;;9.90;7.55;;;8.40;77.00;;;;;;4812617;29;20042;-80
2022/03/03 00:51:34;;;;;;;11.05;8.00;;;8.40;77.00;;;;;;4812731;29;20053;-80
2022/03/03 00:54:00;;;;;;;11.70;8.43;;;8.30;76.90;;;;;;4812573;29;20052;-81
2022/03/03 00:56:26;;;;;;;10.02;7.60;;;8.30;77.00;;;;;;4827731;29;20036;-81
2022/03/03 00:58:52;;;;;;;9.50;7.80;;;8.30;77.00;;;;;;4812491;29;20479;-81
2022/03/03 01:01:18;;;;;;;10.05;7.68;;;8.30;77.00;;;;;;4827349;29;20061;-81
2022/03/03 01:03:44;;;;;;;9.77;7.45;;;8.30;76.90;;;;;;4812232;29;20040;-81
2022/03/03 01:06:10;;;;;;;10.52;8.00;;;8.20;76.90;;;;;;4812444;29;20030;-80
2022/03/03 01:08:36;;;;;;;11.40;8.25;;;8.20;76.90;;;;;;4812272;29;20030;-81
2022/03/03 01:11:03;;;;;;;9.98;7.45;;;8.20;76.90;;;;;;4812173;29;20118;-80
2022/03/03 01:13:29;;;;;;;10.70;8.13;;;8.20;76.90;;;;;;4813096;29;20038;-80
2022/03/03 01:15:55;;;;;;;11.27;8.18;;;8.10;76.80;;;;;;4827978;29;20061;-80
2022/03/03 01:18:22;;;;;;;10.45;7.75;;;8.10;76.90;;;;;;4811925;29;20029;-80
2022/03/03 01:20:48;;;;;;;11.73;8.27;;;8.10;76.90;;;;;;4812401;29;20042;-80
2022/03/03 01:23:13;;;;;;;10.45;7.93;;;8.10;76.80;;;;;;4812069;29;20391;-80
2022/03/03 01:25:39;;;;;;;11.30;8.60;;;8.10;76.80;;;;;;4811388;29;20113;-80
2022/03/03 01:28:05;;;;;;;11.00;8.32;;;8.00;76.80;;;;;;4811863;29;20030;-81
2022/03/03 01:30:31;;;;;;;10.25;7.97;;;8.00;76.80;;;;;;4812226;29;20034;-81
2022/03/03 01:32:57;;;;;;;10.43;8.20;;;8.00;76.80;;;;;;4827345;29;20037;-81
2022/03/03 01:35:23;;;;;;;10.07;7.90;;;7.90;76.70;;;;;;4826981;29;20408;-79
2022/03/03 01:37:49;;;;;;;11.23;8.23;;;7.90;76.70;;;;;;4811477;29;20411;-80
2022/03/03 01:40:14;;;;;;;11.40;8.57;;;7.90;76.80;;;;;;4811655;29;20037;-80
2022/03/03 01:42:40;;;;;;;10.55;8.10;;;7.90;76.70;;;;;;4811734;29;20069;-81
2022/03/03 01:45:07;;;;;;;11.43;8.38;;;7.90;76.80;;;;;;4811885;29;20388;-80
2022/03/03 01:47:33;;;;;;;10.82;8.25;;;7.80;76.70;;;;;;4827080;29;20025;-80
2022/03/03 01:49:59;;;;;;;9.82;7.82;;;7.80;76.70;;;;;;4812407;29;20437;-80
2022/03/03 01:52:25;;;;;;;10.68;8.05;;;7.80;76.70;;;;;;4826674;29;20045;-81
2022/03/03 01:54:51;;;;;;;10.68;8.40;;;7.70;76.60;;;;;;4827488;29;20030;-81
2022/03/03 01:57:19;;;;;;;11.00;7.88;;;7.80;76.70;;;;;;4826835;29;20090;-80
2022/03/03 01:59:45;;;;;;;11.02;8.38;;;7.70;76.70;;;;;;4826796;29;20417;-81
2022/03/03 02:02:11;;;;;;;10.75;8.10;;;7.70;76.70;;;;;;4826957;29;20110;-79
2022/03/03 02:04:39;;;;;;;11.18;8.15;;;7.70;76.60;;;;;;4811521;29;20037;-80
2022/03/03 02:07:05;;;;;;;10.32;8.02;;;7.70;76.60;;;;;;4811853;29;20455;-81
2022/03/03 02:09:31;;;;;;;12.45;8.95;;;7.60;76.60;;;;;;4826933;29;20472;-81
2022/03/03 02:11:57;;;;;;;11.07;8.77;;;7.60;76.60;;;;;;4826830;29;20048;-81
2022/03/03 02:14:23;;;;;;;11.43;8.75;;;7.60;76.60;;;;;;4812270;29;20034;-82
2022/03/03 02:16:49;;;;;;;12.18;8.82;;;7.60;76.60;;;;;;4812118;29;20042;-81
2022/03/03 02:19:19;;;;;;;10.32;8.32;;;7.60;76.60;;;;;;4811713;29;20022;-80
2022/03/03 02:21:47;;;;;;;10.52;7.90;;;7.50;76.60;;;;;;4796856;29;20224;-81
2022/03/03 02:24:14;;;;;;;11.43;8.95;;;7.50;76.60;;;;;;4811693;29;20086;-81
2022/03/03 02:26:41;;;;;;;10.98;8.40;;;7.50;76.60;;;;;;4826452;29;20042;-81
2022/03/03 02:29:07;;;;;;;11.73;8.35;;;7.40;76.60;;;;;;4811241;29;20026;-80
2022/03/03 02:31:33;;;;;;;10.77;8.63;;;7.40;76.60;;;;;;4826489;29;20090;-81
2022/03/03 02:34:00;;;;;;;12.15;8.70;;;7.40;76.50;;;;;;4811565;29;20392;-80
2022/03/03 02:36:28;;;;;;;11.27;8.23;;;7.40;76.60;;;;;;4813062;29;20041;-81
2022/03/03 02:38:57;;;;;;;11.25;8.23;;;7.40;76.60;;;;;;4830250;29;20041;-81
2022/03/03 02:41:24;;;;;;;11.50;8.32;;;7.40;76.60;;;;;;4830370;29;20037;-82
2022/03/03 02:43:50;;;;;;;10.93;8.90;;;7.30;76.50;;;;;;4800095;29;20098;-83
2022/03/03 02:46:17;;;;;;;11.20;8.18;;;7.30;76.50;;;;;;4799807;29;20045;-81
2022/03/03 02:48:43;;;;;;;11.35;8.15;;;7.30;76.50;;;;;;4815123;29;20042;-81
2022/03/03 02:51:08;;;;;;;11.55;8.15;;;7.30;76.60;;;;;;4814920;29;20046;-81
2022/03/03 02:53:35;;;;;;;12.73;9.30;;;7.20;76.50;;;;;;4800469;29;20391;-80
2022/03/03 02:56:01;;;;;;;11.20;8.40;;;7.20;76.50;;;;;;4814499;29;20037;-80
2022/03/03 02:58:27;;;;;;;10.93;7.85;;;7.20;76.50;;;;;;4814899;29;20124;-81
2022/03/03 03:00:53;;;;;;;11.88;8.48;;;7.20;76.50;;;;;;4814188;29;20121;-83
2022/03/03 03:03:19;;;;;;;12.40;9.05;;;7.20;76.60;;;;;;4829789;29;20058;-81
2022/03/03 03:05:46;;;;;;;11.50;8.85;;;7.20;76.60;;;;;;4829393;29;20030;-82
2022/03/03 03:08:13;;;;;;;10.38;7.85;;;7.10;76.50;;;;;;4814529;29;20041;-81
2022/03/03 03:10:40;;;;;;;11.77;9.10;;;7.10;76.50;;;;;;4799535;29;20045;-82
2022/03/03 03:13:06;;;;;;;11.55;9.23;;;7.10;76.50;;;;;;4814590;29;20045;-82
2022/03/03 03:15:33;;;;;;;11.60;8.70;;;7.10;76.50;;;;;;4814420;29;20038;-81
2022/03/03 03:18:13;;;;;;;10.45;8.18;;;7.00;76.50;;;;;;4814237;29;20026;-82
2022/03/03 03:20:40;;;;;;;11.25;8.63;;;7.00;76.60;;;;;;4815332;29;20062;-83
2022/03/03 03:23:07;;;;;;;11.02;8.55;;;7.00;76.50;;;;;;4814566;29;20065;-81
2022/03/03 03:25:33;;;;;;;10.38;8.25;;;7.00;76.50;;;;;;4799319;29;20042;-81
2022/03/03 03:27:59;;;;;;;10.85;8.13;;;6.90;76.50;;;;;;4829548;29;20040;-81
2022/03/03 03:30:25;;;;;;;12.05;9.40;;;6.90;76.50;;;;;;4829737;29;20038;-80
2022/03/03 03:32:51;;;;;;;12.02;8.63;;;6.90;76.50;;;;;;4813787;29;20046;-81
2022/03/03 03:35:17;;;;;;;11.27;8.32;;;6.90;76.50;;;;;;4798504;29;20053;-81
2022/03/03 03:37:42;;;;;;;12.30;8.63;;;6.90;76.50;;;;;;4798992;29;20034;-82
2022/03/03 03:40:09;;;;;;;10.43;8.48;;;6.80;76.40;;;;;;4799400;29;20416;-80
2022/03/03 03:42:35;;;;;;;11.05;8.52;;;6.80;76.50;;;;;;4828457;29;20026;-80
2022/03/03 03:45:01;;;;;;;10.93;8.52;;;6.80;76.40;;;;;;4813554;29;20061;-80
2022/03/03 03:47:26;;;;;;;12.02;8.95;;;6.80;76.40;;;;;;4813543;29;20030;-80
2022/03/03 03:49:52;;;;;;;11.57;8.65;;;6.80;76.50;;;;;;4798036;29;20045;-81
2022/03/03 03:52:18;;;;;;;10.07;8.18;;;6.80;76.40;;;;;;4813709;29;20030;-80
2022/03/03 03:54:44;;;;;;;10.50;8.20;;;6.80;76.50;;;;;;4798706;29;20174;-81
2022/03/03 03:57:09;;;;;;;10.23;7.82;;;6.70;76.40;;;;;;4813517;29;20133;-80
2022/03/03 03:59:35;;;;;;;14.02;9.73;;;6.70;76.40;;;;;;4828350;29;20507;-81
2022/03/03 04:02:01;;;;;;;12.00;9.13;;;6.70;76.40;;;;;;4813712;29;20176;-81
2022/03/03 04:04:27;;;;;;;11.32;8.63;;;6.70;76.50;;;;;;4813497;29;20057;-78
2022/03/03 04:06:52;;;;;;;12.60;9.00;;;6.60;76.40;;;;;;4828221;29;20061;-80
2022/03/03 04:09:18;;;;;;;10.85;7.90;;;6.60;76.30;;;;;;4813167;29;20034;-80
2022/03/03 04:11:44;;;;;;;11.20;8.23;;;6.60;76.40;;;;;;4813853;29;20034;-81
2022/03/03 04:14:10;;;;;;;11.18;8.50;;;6.60;76.40;;;;;;4813438;29;20506;-82
2022/03/03 04:16:35;;;;;;;10.60;8.07;;;6.60;76.40;;;;;;4813586;29;20030;-80
2022/03/03 04:19:01;;;;;;;12.98;9.38;;;6.50;76.40;;;;;;4813360;29;20121;-80
2022/03/03 04:21:27;;;;;;;10.95;8.32;;;6.60;76.40;;;;;;4813244;29;20045;-80
2022/03/03 04:23:53;;;;;;;12.25;9.23;;;6.50;76.40;;;;;;4814180;29;20041;-80
2022/03/03 04:26:19;;;;;;;11.82;8.65;;;6.50;76.40;;;;;;4814217;29;20034;-80
2022/03/03 04:28:45;;;;;;;11.57;8.65;;;6.50;76.40;;;;;;4813477;29;20033;-81
2022/03/03 04:31:10;;;;;;;11.90;8.63;;;6.40;76.30;;;;;;4813162;29;20045;-81
2022/03/03 04:33:37;;;;;;;12.02;9.35;;;6.40;76.30;;;;;;4828066;29;20037;-81
2022/03/03 04:36:05;;;;;;;11.35;8.75;;;6.40;76.30;;;;;;4798832;29;20058;-82
2022/03/03 04:38:31;;;;;;;11.02;8.57;;;6.40;76.30;;;;;;4813389;29;20181;-80
2022/03/03 04:40:56;;;;;;;11.43;8.60;;;6.40;76.30;;;;;;4828099;29;20125;-80
2022/03/03 04:43:22;;;;;;;11.13;8.75;;;6.30;76.30;;;;;;4828927;29;20356;-81
2022/03/03 04:45:48;;;;;;;12.25;9.13;;;6.30;76.30;;;;;;4828290;29;20037;-81
2022/03/03 04:48:14;;;;;;;11.85;8.52;;;6.30;76.30;;;;;;4829003;29;20341;-81
2022/03/03 04:50:39;;;;;;;11.55;8.50;;;6.30;76.30;;;;;;4813139;29;20032;-80
2022/03/03 04:53:05;;;;;;;12.05;8.80;;;6.30;76.30;;;;;;4783560;29;20037;-80
2022/03/03 04:55:31;;;;;;;12.30;9.27;;;6.30;76.30;;;;;;4812867;29;20034;-81
2022/03/03 04:57:57;;;;;;;11.20;8.63;;;6.20;76.30;;;;;;4812752;29;20037;-80
2022/03/03 05:00:22;;;;;;;11.18;8.45;;;6.20;76.30;;;;;;4811617;29;20038;-80
2022/03/03 05:02:48;;;;;;;11.27;8.65;;;6.20;76.30;;;;;;4812575;29;20048;-81
2022/03/03 05:05:14;;;;;;;11.75;8.57;;;6.20;76.30;;;;;;4828721;29;20430;-81
2022/03/03 05:07:40;;;;;;;12.77;8.75;;;6.20;76.30;;;;;;4828182;29;20078;-80
2022/03/03 05:10:07;;;;;;;12.15;8.82;;;6.10;76.30;;;;;;4812683;29;20026;-80
2022/03/03 05:12:33;;;;;;;11.00;8.45;;;6.10;76.30;;;;;;4812836;29;20038;-80
2022/03/03 05:14:59;;;;;;;12.85;8.82;;;6.10;76.30;;;;;;4797741;29;20041;-81
2022/03/03 05:17:25;;;;;;;12.32;9.05;;;6.10;76.30;;;;;;4813238;29;20049;-81
2022/03/03 05:19:51;;;;;;;11.35;8.98;;;6.10;76.30;;;;;;4813157;29;20061;-80
2022/03/03 05:22:17;;;;;;;11.77;8.88;;;6.10;76.40;;;;;;4813060;29;20050;-80
2022/03/03 05:24:49;;;;;;;12.27;9.15;;;6.00;76.30;;;;;;4813036;29;20030;-81
2022/03/03 05:27:16;;;;;;;11.70;8.73;;;6.00;76.30;;;;;;4813899;29;20151;-79
2022/03/03 05:29:41;;;;;;;11.98;8.85;;;6.00;76.30;;;;;;4812025;29;20038;-80
2022/03/03 05:32:07;;;;;;;12.18;9.05;;;6.00;76.30;;;;;;4811814;29;20042;-79
2022/03/03 05:34:33;;;;;;;11.65;8.63;;;5.90;76.30;;;;;;4827213;29;20061;-79
2022/03/03 05:37:00;;;;;;;10.77;8.55;;;5.90;76.20;;;;;;4812850;29;20127;-79
2022/03/03 05:39:27;;;;;;;11.63;8.88;;;5.90;76.30;;;;;;4812270;29;20075;-80
2022/03/03 05:41:56;;;;;;;11.25;8.48;;;5.90;76.30;;;;;;4812408;29;20065;-81
2022/03/03 05:44:22;;;;;;;11.07;8.65;;;5.90;76.30;;;;;;4811926;29;20124;-82
2022/03/03 05:46:48;;;;;;;11.65;8.82;;;5.80;76.20;;;;;;4827123;29;20030;-79
2022/03/03 05:49:16;;;;;;;12.60;8.65;;;5.80;76.20;;;;;;4826706;29;20095;-78
2022/03/03 05:51:42;;;;;;;11.02;9.05;;;5.80;76.30;;;;;;4843028;29;20042;-78
2022/03/03 05:54:07;;;;;;;11.35;8.45;;;5.80;76.20;;;;;;4811690;29;20026;-78
2022/03/03 05:56:38;;;;;;;11.77;9.15;;;5.80;76.20;;;;;;4781691;29;20057;-78
2022/03/03 05:59:12;;;;;;;11.52;8.73;;;5.80;76.30;;;;;;4843149;29;20026;-80
2022/03/03 06:01:41;;;;;;;11.90;8.73;;;5.70;76.20;;;;;;4826849;29;20049;-80
2022/03/03 06:04:14;;;;;;;11.20;8.57;;;5.70;76.20;;;;;;4826895;29;20113;-79
2022/03/03 06:06:58;;;;;;;10.75;8.50;;;5.70;76.20;;;;;;4811601;29;20460;-82
2022/03/03 06:09:30;;;;;;;11.48;8.35;;;5.70;76.30;;;;;;4811612;29;20045;-79
2022/03/03 06:12:24;;;;;;;10.98;8.57;;;5.60;76.20;;;;;;4811686;29;20045;-79
2022/03/03 06:14:53;;;;;;;10.95;8.35;;;5.60;76.30;;;;;;4826431;29;20033;-79
2022/03/03 06:17:24;;;;;;;12.05;9.10;;;5.60;76.20;;;;;;4826215;29;20022;-80
2022/03/03 06:19:51;;;;;;;14.95;10.02;;;5.50;76.20;;;;;;4811112;29;20045;-79
2022/03/03 06:22:18;;;;;;;13.93;9.45;;;5.50;76.20;;;;;;4797067;29;20030;-79
2022/03/03 06:24:44;;;;;;;13.63;9.15;;;5.50;76.20;;;;;;4826053;29;20033;-81
2022/03/03 06:27:10;;;;;;;12.82;9.65;;;5.50;76.20;;;;;;4811610;29;20034;-79
2022/03/03 06:29:38;;;;;;;11.98;9.60;;;5.50;76.20;;;;;;4842808;29;20065;-80
2022/03/03 06:32:04;;;;;;;11.85;8.80;;;5.50;76.20;;;;;;4796583;29;20049;-78
2022/03/03 06:34:30;;;;;;;12.65;9.65;;;5.50;76.20;;;;;;4811172;29;20072;-79
2022/03/03 06:36:56;;;;;;;12.65;9.52;;;5.50;76.20;;;;;;4810636;29;20088;-80
2022/03/03 06:39:22;;;;;;;13.13;8.80;;;5.40;76.20;;;;;;4826647;29;20038;-80
2022/03/03 06:41:48;;;;;;;12.90;9.73;;;5.40;76.20;;;;;;4826303;29;20551;-79
2022/03/03 06:44:14;;;;;;;11.93;9.38;;;5.40;76.80;;;;;;4826831;29;20059;-79
2022/03/03 06:46:40;;;;;;;12.30;9.18;;;5.40;76.20;;;;;;4811479;29;20047;-80
2022/03/03 06:49:07;;;;;;;11.52;8.50;;;5.40;76.20;;;;;;4826189;29;20031;-80
2022/03/03 06:51:42;;;;;;;12.27;9.52;;;5.30;76.20;;;;;;4826047;29;20046;-81
2022/03/03 06:54:13;;;;;;;11.05;8.77;;;5.30;76.20;;;;;;4826474;29;20030;-79
2022/03/03 06:56:49;;;;;;;12.00;9.38;;;5.30;76.20;;;;;;4826351;29;20045;-79
2022/03/03 06:59:18;;;;;;;12.90;9.57;;;5.30;76.20;;;;;;4811164;29;20030;-81
2022/03/03 07:01:46;;;;;;;12.52;8.93;;;5.30;76.20;;;;;;4826005;29;20099;-79
2022/03/03 07:04:13;;;;;;;14.27;9.65;;;5.20;76.20;;;;;;4811050;29;20042;-80
2022/03/03 07:06:39;;;;;;;13.45;9.93;;;5.30;76.20;;;;;;4810956;29;20476;-79
2022/03/03 07:09:05;;;;;;;12.00;9.20;;;5.20;76.20;;;;;;4811001;29;20034;-80
2022/03/03 07:11:32;;;;;;;11.57;9.40;;;5.20;76.20;;;;;;4811076;29;20070;-81
2022/03/03 07:13:58;;;;;;;12.50;9.32;;;5.20;76.20;;;;;;4810708;29;20491;-80
2022/03/03 07:16:36;;;;;;;12.60;9.55;;;5.20;76.20;;;;;;4825806;29;20417;-79
2022/03/03 07:19:05;;;;;;;11.85;8.52;;;5.20;76.30;;;;;;4842097;29;20485;-83
2022/03/03 07:21:52;;;;;;;13.90;9.88;;;5.20;76.20;;;;;;4811464;29;20103;-80
2022/03/03 07:24:26;;;;;;;13.45;9.77;;;5.20;76.30;;;;;;4828583;29;20073;-80
2022/03/03 07:26:57;;;;;;;12.80;9.95;;;5.10;76.30;;;;;;4814884;29;20038;-80
2022/03/03 07:29:28;;;;;;;13.15;9.35;;;5.10;76.20;;;;;;4829300;29;20034;-80
2022/03/03 07:31:55;;;;;;;11.73;8.95;;;5.10;76.30;;;;;;4814137;29;20050;-81
2022/03/03 07:34:28;;;;;;;11.75;9.48;;;5.10;76.30;;;;;;4829466;29;20036;-80
2022/03/03 07:36:57;;;;;;;12.93;9.45;;;5.10;76.30;;;;;;4828885;29;20054;-80
2022/03/03 07:39:30;;;;;;;12.27;9.40;;;5.10;76.30;;;;;;4829190;29;20041;-83
2022/03/03 07:41:58;;;;;;;12.10;8.90;;;5.10;76.40;;;;;;4815214;29;20042;-86
2022/03/03 07:44:25;;;;;;;11.30;8.70;;;5.10;76.40;;;;;;4829735;29;20034;-84
2022/03/03 07:46:51;;;;;;;13.38;9.68;;;5.10;76.40;;;;;;4814569;29;20038;-84
2022/03/03 07:49:21;;;;;;;13.10;8.95;;;5.10;76.40;;;;;;4845952;29;20085;-84
2022/03/03 07:51:48;;;;;;;12.25;9.45;;;5.10;76.40;;;;;;4814192;29;20038;-85
2022/03/03 07:54:14;;;;;;;11.75;9.30;;;5.00;76.40;;;;;;4814460;29;20034;-84
2022/03/03 07:56:54;;;;;;;12.55;9.50;;;5.10;76.50;;;;;;4830184;29;20379;-83
2022/03/03 07:59:25;;;;;;;11.93;8.95;;;5.00;76.50;;;;;;4829667;29;20049;-84
2022/03/03 08:01:54;;;;;;;11.82;8.95;;;5.00;76.40;;;;;;4814560;29;20227;-84
2022/03/03 08:04:26;;;;;;;12.10;9.02;;;5.00;76.50;;;;;;4814459;29;20024;-83
2022/03/03 08:06:55;;;;;;;12.05;9.10;;;5.00;76.50;;;;;;4829549;29;20057;-84
2022/03/03 08:09:24;;;;;;;12.65;9.63;;;5.00;76.50;;;;;;4814122;29;20130;-84
2022/03/03 08:11:52;;;;;;;12.30;9.27;;;5.10;76.60;;;;;;4845450;29;20070;-84
2022/03/03 08:14:20;;;;;;;12.20;8.85;;;5.00;76.60;;;;;;4829047;29;20105;-84
2022/03/03 08:16:47;;;;;;;12.68;9.60;;;5.00;76.60;;;;;;4828982;29;20486;-84
2022/03/03 08:19:14;;;;;;;11.52;8.75;;;5.00;76.60;;;;;;4814462;29;20038;-83
2022/03/03 08:21:44;;;;;;;12.43;9.55;;;5.10;76.70;;;;;;4814009;29;20060;-85
2022/03/03 08:24:12;;;;;;;11.98;9.43;;;5.00;76.70;;;;;;4828991;29;20048;-84
2022/03/03 08:26:38;;;;;;;12.63;9.68;;;5.00;76.70;;;;;;4828427;29;20030;-85
2022/03/03 08:29:04;;;;;;;11.05;8.38;;;5.00;76.70;;;;;;4844934;29;20034;-83
2022/03/03 08:31:39;;;;;;;12.10;9.23;;;5.00;76.70;;;;;;4783708;29;20439;-83
2022/03/03 08:34:14;;;;;;;11.63;8.82;;;5.00;76.80;;;;;;4844894;29;20085;-84
2022/03/03 08:36:50;;;;;;;12.43;9.10;;;5.00;76.80;;;;;;4813540;29;20484;-84
2022/03/03 08:39:18;;;;;;;11.55;8.88;;;5.00;76.70;;;;;;4813777;29;20045;-83
2022/03/03 08:41:45;;;;;;;11.40;8.95;;;5.00;76.70;;;;;;4828301;29;20030;-83
2022/03/03 08:44:12;;;;;;;11.48;8.82;;;5.10;76.80;;;;;;4813583;29;20075;-83
2022/03/03 08:46:40;;;;;;;12.15;9.00;;;5.10;76.80;;;;;;4813304;29;20026;-82
2022/03/03 08:49:10;;;;;;;11.63;8.50;;;5.10;76.90;;;;;;4828135;29;20094;-85
2022/03/03 08:51:37;;;;;;;12.20;9.48;;;5.10;76.90;;;;;;4828627;29;20034;-83
2022/03/03 08:54:04;;;;;;;11.85;8.60;;;5.10;76.90;;;;;;4828717;29;20535;-83
2022/03/03 08:56:29;;;;;;;11.07;8.75;;;5.10;76.80;;;;;;4812773;29;20565;-81
2022/03/03 08:58:55;;;;;;;11.57;8.52;;;5.10;76.90;;;;;;4843767;29;20030;-80
2022/03/03 09:01:22;;;;;;;12.50;9.20;;;5.10;76.90;;;;;;4827741;29;20105;-80
2022/03/03 09:03:48;;;;;;;12.20;8.60;;;5.10;77.50;;;;;;4843511;29;20097;-81
2022/03/03 09:06:18;;;;;;;11.88;8.63;;;5.10;76.90;;;;;;4811993;29;20507;-82
2022/03/03 09:08:44;;;;;;;11.80;8.65;;;5.20;77.00;;;;;;4813150;29;20120;-83
2022/03/03 09:11:11;;;;;;;11.52;9.02;;;5.20;77.00;;;;;;4827459;29;20037;-84
2022/03/03 09:13:37;;;;;;;11.68;9.20;;;5.20;77.00;;;;;;4827694;29;20029;-78
2022/03/03 09:16:03;;;;;;;11.00;8.68;;;5.20;77.00;;;;;;4827087;29;20061;-81
2022/03/03 09:18:29;;;;;;;11.48;8.68;;;5.20;77.00;;;;;;4843710;29;20104;-80
2022/03/03 09:20:55;;;;;;;10.75;8.98;;;5.30;77.00;;;;;;4827244;29;20065;-81
2022/03/03 09:23:20;;;;;;;11.00;8.40;;;5.30;77.00;;;;;;4827154;29;20073;-80
2022/03/03 09:25:46;;;;;;;13.18;10.13;;;5.30;77.00;;;;;;4811758;29;20524;-79
2022/03/03 09:28:12;;;;;;;12.20;8.70;;;5.40;77.00;;;;;;4812446;29;20086;-83
2022/03/03 09:30:38;;;;;;;12.50;9.55;;;5.40;77.10;;;;;;4826857;29;20058;-79
2022/03/03 09:33:05;;;;;;;11.38;8.95;;;5.50;77.00;;;;;;4826971;29;20380;-80
2022/03/03 09:35:32;;;;;;;10.80;8.95;;;5.50;77.00;;;;;;4796522;29;20058;-78
2022/03/03 09:37:58;;;;;;;11.32;8.23;;;5.60;77.00;;;;;;4811807;29;20061;-76
2022/03/03 09:40:27;;;;;;;11.18;8.98;;;5.60;77.00;;;;;;4811659;29;20154;-82
2022/03/03 09:42:59;;;;;;;12.30;9.13;;;5.70;77.70;;;;;;4812340;29;20072;-81
2022/03/03 09:45:26;;;;;;;11.80;8.88;;;5.70;77.00;;;;;;4843644;29;20034;-83
2022/03/03 09:47:55;;;;;;;12.80;9.13;;;5.70;77.00;;;;;;4827367;29;20472;-83
2022/03/03 09:50:22;;;;;;;11.77;9.40;;;5.80;77.00;;;;;;4812213;29;20042;-83
2022/03/03 09:52:49;;;;;;;10.77;8.25;;;5.90;77.00;;;;;;4812457;29;20128;-82
2022/03/03 09:55:16;;;;;;;12.48;8.77;;;5.90;76.90;;;;;;4811862;29;20049;-82
2022/03/03 09:57:42;;;;;;;12.10;8.80;;;6.00;76.90;;;;;;4811787;29;20037;-80
2022/03/03 10:00:11;;;;;;;11.55;9.25;;;6.00;76.90;;;;;;4811639;29;20483;-78
2022/03/03 10:03:03;;;;;;;11.85;8.90;;;6.10;76.90;;;;;;4843229;29;20117;-79
2022/03/03 10:05:39;;;;;;;11.77;8.93;;;6.20;77.10;;;;;;4828782;29;20033;-83
2022/03/03 10:08:10;;;;;;;11.10;8.20;;;6.20;76.80;;;;;;4829842;29;20063;-83
2022/03/03 10:10:39;;;;;;;10.23;8.10;;;6.30;76.90;;;;;;4813188;29;20026;-82
2022/03/03 10:13:05;;;;;;;11.48;9.30;;;6.40;76.90;;;;;;4845243;29;20034;-87
2022/03/03 10:15:56;;;;;;;10.35;8.50;;;6.40;76.80;;;;;;4845094;29;20527;-83
2022/03/03 10:18:23;;;;;;;11.63;8.75;;;6.60;77.00;;;;;;4829715;29;20049;-90
2022/03/03 10:21:19;;;;;;;11.68;8.82;;;6.60;76.80;;;;;;4812927;29;20030;-89
2022/03/03 10:24:26;;;;;;;10.88;8.30;;;6.70;77.00;;;;;;4843418;29;20048;-87
2022/03/03 10:26:58;;;;;;;12.80;9.27;;;6.80;76.90;;;;;;4813495;29;20034;-79
2022/03/03 10:29:26;;;;;;;11.23;9.48;;;6.90;76.80;;;;;;4828718;29;20053;-82
2022/03/03 10:31:53;;;;;;;11.40;9.18;;;7.00;76.90;;;;;;4828541;29;20046;-82
2022/03/03 10:34:21;;;;;;;11.18;9.27;;;7.00;76.90;;;;;;4813554;29;20048;-82
2022/03/03 10:37:08;;;;;;;12.18;9.65;;;7.10;76.90;;;;;;4830225;29;20049;-84
2022/03/03 10:39:47;;;;;;;10.85;9.00;;;7.20;77.00;;;;;;4813382;29;20029;-82
2022/03/03 10:42:19;;;;;;;12.55;9.43;;;7.30;77.00;;;;;;4814320;29;20046;-82
2022/03/03 10:44:45;;;;;;;11.85;9.38;;;7.40;76.90;;;;;;4828676;29;20220;-84
2022/03/03 10:47:15;;;;;;;11.80;9.15;;;7.50;76.90;;;;;;4813260;29;20417;-82
2022/03/03 10:49:45;;;;;;;11.80;9.35;;;7.60;76.90;;;;;;4828711;29;20026;-82
2022/03/03 10:52:15;;;;;;;10.63;9.18;;;7.70;76.90;;;;;;4844607;29;20036;-87
2022/03/03 10:54:58;;;;;;;11.57;9.13;;;7.80;76.90;;;;;;4813945;29;20033;-91
2022/03/03 10:57:49;;;;;;;10.68;8.95;;;7.90;77.00;;;;;;4829289;29;20034;-81
2022/03/03 11:00:28;;;;;;;11.65;8.85;;;8.00;77.00;;;;;;4817043;29;20444;-83
2022/03/03 11:03:00;;;;;;;11.18;9.07;;;8.10;76.90;;;;;;4817236;29;20113;-84
2022/03/03 11:05:28;;;;;;;11.45;8.93;;;8.20;76.90;;;;;;4831952;29;20132;-80
2022/03/03 11:07:55;;;;;;;10.50;9.00;;;8.30;76.90;;;;;;4831905;29;20041;-80
2022/03/03 11:10:24;;;;;;;12.30;9.30;;;8.40;77.00;;;;;;4815661;29;20046;-78
2022/03/03 11:12:50;;;;;;;10.85;8.82;;;8.40;76.90;;;;;;4830891;29;20038;-78
2022/03/03 11:15:19;;;;;;;11.23;9.00;;;8.50;76.90;;;;;;4854955;29;20033;-80
2022/03/03 11:17:45;;;;;;;12.50;9.73;;;8.60;77.00;;;;;;4815328;29;20109;-80
2022/03/03 11:20:14;;;;;;;10.75;8.70;;;8.70;77.00;;;;;;4814887;29;20041;-82
2022/03/03 11:22:41;;;;;;;11.50;8.90;;;8.80;77.10;;;;;;4829817;29;20047;-82
2022/03/03 11:25:18;;;;;;;12.18;9.00;;;8.90;77.20;;;;;;4829780;29;20038;-79
2022/03/03 11:27:47;;;;;;;10.73;8.82;;;9.00;77.30;;;;;;4846113;29;20077;-80
2022/03/03 11:30:24;;;;;;;12.00;9.18;;;9.00;77.20;;;;;;4814517;29;20087;-80
2022/03/03 11:33:30;;;;;;;11.38;9.25;;;9.10;77.30;;;;;;4829539;29;20042;-79
2022/03/03 11:35:59;;;;;;;10.82;9.02;;;9.20;77.50;;;;;;4738263;30;20070;-79
2022/03/03 11:38:50;;;;;;;10.25;8.60;;;9.30;77.30;;;;;;4800643;29;20048;-78
2022/03/03 11:41:16;;;;;;;10.20;8.68;;;9.30;77.40;;;;;;4828718;29;20116;-79
2022/03/03 11:43:47;;;;;;;10.27;8.70;;;9.40;77.50;;;;;;4829037;29;20061;-78
2022/03/03 11:46:14;;;;;;;11.27;8.73;;;9.50;77.60;;;;;;4829313;29;20034;-79
2022/03/03 11:48:40;;;;;;;10.93;8.45;;;9.50;77.60;;;;;;4829010;29;20054;-78
2022/03/03 11:51:34;;;;;;;10.50;8.75;;;9.60;77.70;;;;;;4784076;29;20055;-78
2022/03/03 11:54:11;;;;;;;10.07;8.07;;;9.60;77.90;;;;;;4828782;29;20124;-79
2022/03/03 11:57:09;;;;;;;11.10;8.45;;;9.70;77.80;;;;;;4814104;29;20034;-80
2022/03/03 11:59:47;;;;;;;11.07;7.95;;;9.80;78.00;;;;;;4845001;29;20034;-79
2022/03/03 12:02:16;;;;;;;9.48;7.90;;;9.90;78.10;;;;;;4813654;29;20059;-78
2022/03/03 12:04:42;;;;;;;10.65;8.95;;;9.90;78.10;;;;;;4813362;29;20026;-79
2022/03/03 12:07:29;;;;;;;10.82;8.88;;;9.90;78.10;;;;;;4829086;29;20159;-81
2022/03/03 12:09:56;;;;;;;10.68;8.52;;;10.00;78.30;;;;;;4798322;29;20034;-77
2022/03/03 12:12:24;;;;;;;9.40;8.27;;;10.00;78.10;;;;;;4828247;29;20045;-78
2022/03/03 12:14:59;;;;;;;10.80;8.55;;;10.10;78.20;;;;;;4828716;29;20030;-87
2022/03/03 12:17:46;;;;;;;10.43;8.68;;;10.10;78.30;;;;;;4829756;29;20037;-80
2022/03/03 12:20:23;;;;;;;9.65;8.02;;;10.20;78.40;;;;;;4830296;29;20033;-77
2022/03/03 12:23:13;;;;;;;10.98;8.85;;;10.30;78.40;;;;;;4828565;29;20105;-77
2022/03/03 12:25:51;;;;;;;10.73;8.38;;;10.30;78.40;;;;;;4847835;29;20034;-87
2022/03/03 12:28:23;;;;;;;9.10;7.57;;;10.40;78.40;;;;;;4815626;29;20034;-87
2022/03/03 12:30:50;;;;;;;9.48;8.00;;;10.50;78.40;;;;;;4831320;29;20061;-87
2022/03/03 12:33:24;;;;;;;10.77;8.90;;;10.50;78.40;;;;;;4814522;29;20125;-82
2022/03/03 12:35:50;;;;;;;9.77;8.35;;;10.60;78.50;;;;;;4831871;29;20054;-82
2022/03/03 12:38:16;;;;;;;10.68;8.45;;;10.60;78.40;;;;;;4814584;29;20053;-83
2022/03/03 12:40:43;;;;;;;9.20;8.13;;;10.70;78.30;;;;;;4829914;29;20042;-80
2022/03/03 12:43:17;;;;;;;10.18;8.20;;;10.70;78.30;;;;;;4812682;29;20125;-81
2022/03/03 12:45:44;;;;;;;10.00;8.20;;;10.80;78.40;;;;;;4829233;29;20037;-81
2022/03/03 12:48:12;;;;;;;10.70;8.70;;;10.80;78.30;;;;;;4815670;29;20425;-83
2022/03/03 12:50:40;;;;;;;10.30;8.43;;;10.90;78.30;;;;;;4831021;29;20034;-81
2022/03/03 12:53:14;;;;;;;9.52;8.23;;;10.90;78.30;;;;;;4815971;29;20037;-82
2022/03/03 12:55:43;;;;;;;9.45;8.20;;;11.00;78.30;;;;;;4847333;29;20034;-80